Time;durP1;ratioP1;P1;durP2;ratioP2;P2;SDS_P1;SDS_P2;PMS_P1;PMS_P2;Temp;Humidity;BMP_temperature;BMP_pressure;BME280_temperature;BME280_humidity;BME280_pressure;Samples;Min_cycle;Max_cycle;Signal;HPM_P1;HPM_P2
2023/05/18 00:00:13;;;;;;;9.45;3.90;;;;;;;5.04;100.00;99459.63;5030066;28;20072;-78
2023/05/18 00:02:39;;;;;;;;;;;;;;;5.21;100.00;99474.03;5034446;28;20483;-78
2023/05/18 00:05:05;;;;;;;7.65;3.83;;;;;;;5.23;100.00;99461.34;5034262;28;19916;-78
2023/05/18 00:07:32;;;;;;;9.63;4.35;;;;;;;4.99;100.00;99421.72;5029735;28;20029;-78
2023/05/18 00:09:58;;;;;;;9.98;3.95;;;;;;;5.30;100.00;99448.16;5035230;28;20434;-77
2023/05/18 00:12:23;;;;;;;10.10;3.75;;;;;;;5.32;100.00;99456.88;5026941;28;20025;-79
2023/05/18 00:14:48;;;;;;;10.75;3.97;;;;;;;5.25;100.00;99453.97;5036467;28;20698;-78
2023/05/18 00:17:14;;;;;;;14.88;4.50;;;;;;;5.22;100.00;99425.63;5051370;28;20040;-78
2023/05/18 00:19:40;;;;;;;8.77;4.00;;;;;;;5.30;100.00;99442.78;5039938;28;20036;-80
2023/05/18 00:22:06;;;;;;;12.18;3.67;;;;;;;5.10;100.00;99432.19;5041418;28;20117;-77
2023/05/18 00:24:32;;;;;;;14.82;4.22;;;;;;;5.24;100.00;99455.81;5036835;28;20060;-79
2023/05/18 00:26:57;;;;;;;9.30;3.50;;;;;;;4.90;100.00;99387.75;5034155;28;20045;-78
2023/05/18 00:29:22;;;;;;;8.02;4.07;;;;;;;5.26;100.00;99429.66;5037741;28;20028;-78
2023/05/18 00:31:48;;;;;;;9.25;3.78;;;;;;;5.31;100.00;99441.78;5038345;28;20029;-78
2023/05/18 00:34:14;;;;;;;7.28;3.28;;;;;;;5.31;100.00;99433.75;5044885;28;20094;-78
2023/05/18 00:36:40;;;;;;;8.68;3.92;;;;;;;5.29;100.00;99428.50;5033752;28;20032;-78
2023/05/18 00:39:07;;;;;;;8.20;3.80;;;;;;;5.40;100.00;99435.50;5037695;28;20022;-77
2023/05/18 00:41:33;;;;;;;9.55;4.00;;;;;;;5.40;100.00;99430.97;5030740;28;20025;-78
2023/05/18 00:43:59;;;;;;;12.13;4.05;;;;;;;5.49;100.00;99456.03;5041463;28;20101;-79
2023/05/18 00:46:26;;;;;;;9.50;3.88;;;;;;;5.40;100.00;99427.47;5031875;28;20497;-78
2023/05/18 00:48:53;;;;;;;10.35;4.32;;;;;;;5.51;100.00;99448.69;5046711;28;20055;-78
2023/05/18 00:51:24;;;;;;;15.48;4.75;;;;;;;5.20;100.00;99410.69;5036429;28;20045;-80
2023/05/18 00:53:51;;;;;;;8.30;3.75;;;;;;;5.47;100.00;99455.34;5037320;28;20022;-78
2023/05/18 00:56:18;;;;;;;6.90;4.22;;;;;;;5.47;100.00;99453.50;5041512;28;20029;-78
2023/05/18 00:58:43;;;;;;;9.65;4.10;;;;;;;5.33;100.00;99421.84;5036804;28;20043;-78
2023/05/18 01:01:09;;;;;;;8.80;4.28;;;;;;;5.44;100.00;99429.66;5038861;28;20033;-78
2023/05/18 01:03:37;;;;;;;7.05;3.70;;;;;;;5.44;100.00;99443.06;5040492;28;20024;-76
2023/05/18 01:06:04;;;;;;;5.88;3.90;;;;;;;5.34;100.00;99425.38;5031617;28;20022;-76
2023/05/18 01:08:30;;;;;;;10.50;3.88;;;;;;;5.22;100.00;99420.25;5034666;28;20082;-76
2023/05/18 01:11:01;;;;;;;10.70;3.97;;;;;;;5.22;100.00;99414.88;5029657;28;20017;-76
2023/05/18 01:13:41;;;;;;;9.48;3.72;;;;;;;5.32;100.00;99422.88;5046805;28;20053;-76
2023/05/18 01:16:11;;;;;;;10.38;3.83;;;;;;;5.43;100.00;99435.19;5042588;28;20079;-76
2023/05/18 01:18:46;;;;;;;8.63;3.03;;;;;;;5.31;100.00;99423.84;5033277;28;20040;-77
2023/05/18 01:21:45;;;;;;;8.02;4.03;;;;;;;5.57;100.00;99433.78;5037924;28;20021;-76
2023/05/18 01:24:25;;;;;;;8.90;3.53;;;;;;;5.52;100.00;99444.16;5032692;28;20033;-77
2023/05/18 01:26:56;;;;;;;6.93;3.70;;;;;;;5.49;100.00;99426.50;5031281;28;20091;-77
2023/05/18 01:29:23;;;;;;;11.10;3.53;;;;;;;5.70;100.00;99426.16;5032919;28;20025;-76
2023/05/18 01:31:49;;;;;;;8.82;3.00;;;;;;;5.93;100.00;99400.50;5031094;28;20048;-76
2023/05/18 01:34:14;;;;;;;7.22;2.53;;;;;;;6.59;100.00;99390.91;5031763;28;20478;-77
2023/05/18 01:36:39;;;;;;;5.05;2.30;;;;;;;7.18;100.00;99392.72;5041210;28;20084;-75
2023/05/18 01:39:05;;;;;;;8.77;2.33;;;;;;;7.46;100.00;99377.03;5040133;28;20026;-77
2023/05/18 01:41:34;;;;;;;8.52;2.15;;;;;;;7.71;100.00;99390.50;5033187;28;20040;-76
2023/05/18 01:44:08;;;;;;;6.95;2.28;;;;;;;7.77;100.00;99395.19;5041985;28;20438;-76
2023/05/18 01:46:53;;;;;;;9.30;2.15;;;;;;;7.83;100.00;99394.50;5038744;28;20091;-77
2023/05/18 01:49:27;;;;;;;5.75;2.17;;;;;;;7.80;100.00;99400.22;5036661;28;20427;-77
2023/05/18 01:51:56;;;;;;;6.35;2.70;;;;;;;7.62;100.00;99397.72;5038171;28;20049;-77
2023/05/18 01:54:23;;;;;;;7.88;2.72;;;;;;;7.55;100.00;99383.28;5033616;28;20041;-77
2023/05/18 01:56:51;;;;;;;8.10;2.58;;;;;;;7.50;100.00;99375.72;5032626;28;20030;-77
2023/05/18 01:59:16;;;;;;;8.90;1.88;;;;;;;7.45;100.00;99372.69;5024978;28;20029;-78
2023/05/18 02:01:42;;;;;;;12.60;2.67;;;;;;;7.59;100.00;99387.31;5032048;28;20111;-76
2023/05/18 02:04:08;;;;;;;7.90;2.30;;;;;;;7.52;100.00;99364.75;5033133;28;20032;-77
2023/05/18 02:06:34;;;;;;;10.73;2.22;;;;;;;7.54;100.00;99376.19;5039481;28;20033;-77
2023/05/18 02:08:59;;;;;;;6.07;2.50;;;;;;;7.52;100.00;99364.75;5036597;28;20026;-76
2023/05/18 02:11:25;;;;;;;6.28;2.30;;;;;;;7.60;100.00;99370.16;5040032;28;20502;-76
2023/05/18 02:13:50;;;;;;;7.43;2.30;;;;;;;7.55;100.00;99367.97;5039712;28;20142;-76
2023/05/18 02:16:16;;;;;;;10.05;2.22;;;;;;;7.69;100.00;99374.50;5039731;28;20120;-77
2023/05/18 02:18:41;;;;;;;8.02;2.55;;;;;;;7.69;100.00;99378.03;5039652;28;20475;-77
2023/05/18 02:21:08;;;;;;;7.05;2.10;;;;;;;7.59;100.00;99355.00;5028515;28;20029;-76
2023/05/18 02:23:33;;;;;;;8.95;2.50;;;;;;;7.75;100.00;99365.72;5028168;28;20026;-76
2023/05/18 02:25:58;;;;;;;11.23;2.00;;;;;;;7.78;100.00;99364.53;5027707;28;20048;-77
2023/05/18 02:28:24;;;;;;;13.20;2.28;;;;;;;7.86;100.00;99369.94;5030985;28;20119;-75
2023/05/18 02:30:49;;;;;;;8.10;2.25;;;;;;;7.92;100.00;99369.25;5029916;28;20025;-76
2023/05/18 02:33:16;;;;;;;7.13;1.67;;;;;;;7.87;100.00;99366.22;5038769;28;20029;-75
2023/05/18 02:35:41;;;;;;;7.13;1.98;;;;;;;7.92;100.00;99389.97;5031868;28;20025;-76
2023/05/18 02:38:07;;;;;;;7.18;2.15;;;;;;;7.83;100.00;99389.97;5027551;28;20033;-76
2023/05/18 02:40:32;;;;;;;9.95;2.13;;;;;;;7.46;100.00;99331.28;5035187;28;20056;-77
2023/05/18 02:42:57;;;;;;;7.60;2.00;;;;;;;7.63;100.00;99356.34;5034261;28;20025;-76
2023/05/18 02:45:23;;;;;;;8.90;2.17;;;;;;;7.60;100.00;99360.22;5029574;28;20564;-76
2023/05/18 02:47:48;;;;;;;9.73;2.10;;;;;;;7.58;100.00;99353.31;5037716;28;20028;-75
2023/05/18 02:50:14;;;;;;;6.22;1.90;;;;;;;7.55;100.00;99354.50;5030102;28;20395;-75
2023/05/18 02:52:41;;;;;;;9.05;2.30;;;;;;;7.33;100.00;99320.19;5025436;28;20068;-75
2023/05/18 02:55:06;;;;;;;8.73;2.10;;;;;;;7.38;100.00;99325.91;5030654;28;20018;-77
2023/05/18 02:57:32;;;;;;;10.50;2.50;;;;;;;7.47;100.00;99357.22;5034059;28;20033;-75
2023/05/18 02:59:57;;;;;;;10.60;2.40;;;;;;;7.41;100.00;99360.56;5030990;28;20023;-76
2023/05/18 03:02:23;;;;;;;6.82;2.53;;;;;;;7.40;100.00;99372.34;5041450;28;20050;-76
2023/05/18 03:04:53;;;;;;;11.73;2.38;;;;;;;7.23;100.00;99361.59;5045851;28;20075;-77
2023/05/18 03:07:21;;;;;;;9.60;2.13;;;;;;;7.05;100.00;99365.44;5031671;28;20076;-75
2023/05/18 03:09:46;;;;;;;6.15;2.38;;;;;;;6.87;100.00;99365.59;5030746;28;20047;-79
2023/05/18 03:12:11;;;;;;;6.88;2.53;;;;;;;6.63;100.00;99367.22;5037118;28;20085;-77
2023/05/18 03:14:37;;;;;;;5.13;2.45;;;;;;;6.28;100.00;99358.34;5031325;28;20025;-75
2023/05/18 03:17:04;;;;;;;5.35;1.98;;;;;;;6.03;100.00;99348.53;5027838;28;20394;-77
2023/05/18 03:19:30;;;;;;;11.13;2.30;;;;;;;5.95;100.00;99343.97;5042319;28;20035;-76
2023/05/18 03:21:56;;;;;;;13.05;2.67;;;;;;;5.83;100.00;99361.31;5030225;28;20029;-77
2023/05/18 03:24:25;;;;;;;8.05;2.72;;;;;;;5.76;100.00;99374.53;5030668;28;20475;-76
2023/05/18 03:26:53;;;;;;;4.88;1.95;;;;;;;5.48;100.00;99366.63;5024936;28;20116;-78
2023/05/18 03:29:18;;;;;;;6.90;2.50;;;;;;;5.28;100.00;99359.78;5038863;28;20032;-76
2023/05/18 03:31:43;;;;;;;7.65;2.63;;;;;;;5.42;100.00;99391.44;5024836;28;20029;-76
2023/05/18 03:34:09;;;;;;;11.65;2.45;;;;;;;5.18;100.00;99367.91;5032147;28;20376;-76
2023/05/18 03:36:34;;;;;;;11.75;2.45;;;;;;;5.38;100.00;99390.03;5031197;28;20068;-76
2023/05/18 03:38:59;;;;;;;11.05;2.20;;;;;;;5.34;100.00;99383.28;5039377;28;20053;-76
2023/05/18 03:41:25;;;;;;;9.00;2.47;;;;;;;5.35;100.00;99374.25;5038609;28;20457;-77
2023/05/18 03:43:50;;;;;;;7.00;2.13;;;;;;;5.40;100.00;99376.47;5028082;28;20914;-75
2023/05/18 03:46:15;;;;;;;7.32;2.13;;;;;;;5.51;100.00;99370.00;5034397;28;20064;-77
2023/05/18 03:48:41;;;;;;;6.35;2.00;;;;;;;5.56;100.00;99381.97;5029701;28;20136;-76
2023/05/18 03:51:06;;;;;;;10.73;3.08;;;;;;;5.51;100.00;99370.00;5039545;28;20159;-79
2023/05/18 03:53:32;;;;;;;8.30;2.42;;;;;;;5.48;100.00;99374.69;5041081;28;20029;-77
2023/05/18 03:55:58;;;;;;;4.35;2.05;;;;;;;5.55;100.00;99379.41;5033650;28;20029;-77
2023/05/18 03:58:23;;;;;;;7.65;2.60;;;;;;;5.39;100.00;99370.25;5040216;28;20036;-77
2023/05/18 04:00:49;;;;;;;7.95;2.70;;;;;;;5.74;100.00;99400.72;5040424;28;20029;-77
2023/05/18 04:03:14;;;;;;;8.13;2.25;;;;;;;5.73;100.00;99401.69;5046925;28;20063;-76
2023/05/18 04:05:43;;;;;;;10.02;2.42;;;;;;;5.66;100.00;99381.88;5042288;28;20068;-77
2023/05/18 04:08:09;;;;;;;9.35;2.50;;;;;;;5.76;100.00;99387.94;5033851;28;20120;-77
2023/05/18 04:10:35;;;;;;;9.70;2.35;;;;;;;5.69;100.00;99386.91;5035322;28;20029;-78
2023/05/18 04:13:00;;;;;;;12.30;3.85;;;;;;;5.24;100.00;99304.75;5051012;28;20104;-78
2023/05/18 04:15:25;;;;;;;11.20;2.22;;;;;;;5.83;100.00;99399.75;5050691;28;20446;-77
2023/05/18 04:17:52;;;;;;;9.43;2.20;;;;;;;5.81;100.00;99391.00;5033964;28;20039;-77
2023/05/18 04:20:18;;;;;;;11.05;2.30;;;;;;;5.97;100.00;99408.25;5041384;28;20025;-77
2023/05/18 04:22:47;;;;;;;10.15;2.85;;;;;;;5.87;100.00;99403.81;5034001;28;20471;-77
2023/05/18 04:25:16;;;;;;;8.93;2.10;;;;;;;5.97;100.00;99406.41;5031810;28;20068;-78
2023/05/18 04:27:42;;;;;;;5.35;2.03;;;;;;;6.02;100.00;99396.03;5033894;28;20434;-78
2023/05/18 04:30:10;;;;;;;9.52;1.70;;;;;;;6.23;100.00;99410.91;5041671;28;20018;-77
2023/05/18 04:32:36;;;;;;;6.53;2.17;;;;;;;6.11;100.00;99383.50;5033746;28;20048;-77
2023/05/18 04:35:10;;;;;;;16.83;2.25;;;;;;;6.27;100.00;99397.00;5031254;28;20151;-77
2023/05/18 04:37:39;;;;;;;8.20;2.30;;;;;;;6.36;100.00;99403.25;5032691;28;20048;-77
2023/05/18 04:40:06;;;;;;;8.45;2.35;;;;;;;6.51;100.00;99415.06;5042886;28;20029;-76
2023/05/18 04:42:33;;;;;;;9.00;2.20;;;;;;;6.49;100.00;99405.47;5045235;28;20508;-77
2023/05/18 04:44:59;;;;;;;11.25;1.70;;;;;;;6.54;100.00;99397.78;5036706;28;20041;-77
2023/05/18 04:47:24;;;;;;;11.80;2.28;;;;;;;6.44;100.00;99367.50;5026648;28;20052;-75
2023/05/18 04:49:51;;;;;;;10.95;2.95;;;;;;;6.79;100.00;99410.28;5040568;28;20080;-75
2023/05/18 04:52:17;;;;;;;10.80;2.38;;;;;;;6.84;100.00;99406.25;5042231;28;20025;-75
2023/05/18 04:54:42;;;;;;;9.77;2.53;;;;;;;7.03;100.00;99419.41;5039712;28;20026;-75
2023/05/18 04:57:07;;;;;;;5.85;2.22;;;;;;;7.06;100.00;99413.69;5042664;28;20048;-76
2023/05/18 04:59:36;;;;;;;5.40;1.63;;;;;;;7.15;100.00;99407.34;5027091;28;20060;-73
2023/05/18 05:02:02;;;;;;;8.98;1.83;;;;;;;7.41;100.00;99412.56;5026324;28;20034;-74
2023/05/18 05:04:27;;;;;;;9.73;1.90;;;;;;;7.44;100.00;99406.84;5031870;28;20034;-73
2023/05/18 05:06:53;;;;;;;5.00;2.08;;;;;;;7.68;100.00;99419.44;5025799;28;20025;-74
2023/05/18 05:09:18;;;;;;;8.30;1.83;;;;;;;7.73;100.00;99418.09;5030442;28;20115;-73
2023/05/18 05:11:43;;;;;;;12.70;2.20;;;;;;;7.77;100.00;99396.03;5030320;28;20426;-74
2023/05/18 05:14:09;;;;;;;12.25;2.63;;;;;;;8.01;100.00;99411.31;5033902;28;20056;-74
2023/05/18 05:16:34;;;;;;;5.85;2.03;;;;;;;8.29;100.00;99427.06;5035018;28;20032;-74
2023/05/18 05:19:00;;;;;;;10.82;2.22;;;;;;;8.45;100.00;99429.75;5031156;28;20025;-73
2023/05/18 05:21:25;;;;;;;7.20;1.73;;;;;;;8.66;100.00;99422.91;5043720;28;20025;-72
2023/05/18 05:23:51;;;;;;;8.15;1.80;;;;;;;8.62;100.00;99410.78;5038165;28;20021;-73
2023/05/18 05:26:16;;;;;;;6.90;1.73;;;;;;;8.70;100.00;99425.09;5030495;28;22326;-75
2023/05/18 05:28:42;;;;;;;12.05;1.88;;;;;;;8.70;100.00;99416.16;5037506;28;20076;-74
2023/05/18 05:31:08;;;;;;;7.55;1.98;;;;;;;8.75;100.00;99422.72;5037748;28;20068;-73
2023/05/18 05:33:34;;;;;;;5.55;1.63;;;;;;;8.85;100.00;99427.88;5032511;28;20026;-72
2023/05/18 05:35:59;;;;;;;6.53;2.05;;;;;;;8.93;100.00;99414.34;5031349;28;20018;-72
2023/05/18 05:38:25;;;;;;;10.02;2.25;;;;;;;8.94;100.00;99402.53;5030388;28;20026;-74
2023/05/18 05:40:50;;;;;;;9.18;2.10;;;;;;;9.17;100.00;99417.91;5026930;28;20450;-73
2023/05/18 05:43:15;;;;;;;10.70;2.22;;;;;;;9.47;100.00;99399.13;5030274;28;20677;-73
2023/05/18 05:45:42;;;;;;;10.35;2.20;;;;;;;9.70;100.00;99399.94;5035711;28;20384;-73
2023/05/18 05:48:07;;;;;;;6.78;2.17;;;;;;;10.10;100.00;99408.66;5047710;28;20116;-73
2023/05/18 05:50:33;;;;;;;7.40;1.85;;;;;;;10.44;100.00;99416.22;5037052;28;20157;-74
2023/05/18 05:52:58;;;;;;;11.82;1.98;;;;;;;10.82;100.00;99416.09;5029198;28;20033;-72
2023/05/18 05:55:24;;;;;;;9.02;1.50;;;;;;;11.08;100.00;99422.84;5040397;28;20056;-72
2023/05/18 05:57:49;;;;;;;11.25;2.03;;;;;;;11.13;100.00;99401.44;5031625;28;20044;-72
2023/05/18 06:00:15;;;;;;;7.72;1.65;;;;;;;11.41;100.00;99410.47;5044030;28;20134;-70
2023/05/18 06:02:41;;;;;;;7.07;1.90;;;;;;;11.49;100.00;99420.34;5041543;28;20034;-70
2023/05/18 06:05:07;;;;;;;7.43;1.70;;;;;;;11.75;100.00;99411.63;5027783;28;20083;-71
2023/05/18 06:07:33;;;;;;;6.53;1.90;;;;;;;11.84;100.00;99406.88;5044215;28;20025;-70
2023/05/18 06:09:58;;;;;;;11.32;2.40;;;;;;;12.00;100.00;99428.31;5027097;28;20045;-70
2023/05/18 06:12:23;;;;;;;9.70;2.53;;;;;;;12.24;100.00;99412.63;5031306;28;20495;-70
2023/05/18 06:14:51;;;;;;;6.25;2.13;;;;;;;12.45;100.00;99417.97;5033395;28;20018;-70
2023/05/18 06:17:17;;;;;;;16.38;1.55;;;;;;;12.40;100.00;99408.75;5032719;28;20479;-71
2023/05/18 06:19:42;;;;;;;20.20;3.00;;;;;;;12.73;100.00;99411.63;5030699;28;20052;-70
2023/05/18 06:22:07;;;;;;;3.88;1.40;;;;;;;13.05;100.00;99410.09;5031480;28;20025;-73
2023/05/18 06:24:33;;;;;;;5.78;1.50;;;;;;;13.07;99.79;99415.28;5029739;28;20406;-75
2023/05/18 06:26:58;;;;;;;7.75;1.85;;;;;;;13.45;92.11;99426.50;5036779;28;20021;-74
2023/05/18 06:29:23;;;;;;;10.25;1.90;;;;;;;14.13;86.71;99423.59;5046801;28;20025;-73
2023/05/18 06:31:49;;;;;;;4.72;1.20;;;;;;;15.96;75.22;99406.78;5038246;28;20029;-76
2023/05/18 06:34:14;;;;;;;10.48;1.40;;;;;;;17.53;66.95;99395.25;5023793;28;20041;-76
2023/05/18 06:36:39;;;;;;;9.73;1.77;;;;;;;18.91;60.20;99392.13;5038714;28;20112;-76
2023/05/18 06:39:05;;;;;;;11.43;2.10;;;;;;;18.79;57.95;99375.75;5030750;28;20442;-74
2023/05/18 06:41:31;;;;;;;7.72;1.80;;;;;;;19.34;57.08;99379.81;5032760;28;20108;-76
2023/05/18 06:43:59;;;;;;;8.43;1.83;;;;;;;19.31;55.25;99421.47;5033210;28;20142;-76
2023/05/18 06:46:25;;;;;;;8.45;2.20;;;;;;;19.49;54.09;99393.81;5032107;28;20463;-76
2023/05/18 06:48:51;;;;;;;4.88;1.73;;;;;;;19.84;53.86;99409.25;5034492;28;20059;-77
2023/05/18 06:51:17;;;;;;;5.85;1.70;;;;;;;20.56;51.70;99402.13;5029957;28;20028;-77
2023/05/18 06:53:43;;;;;;;10.13;1.85;;;;;;;20.55;50.75;99384.78;5025234;28;20103;-71
2023/05/18 06:56:10;;;;;;;8.80;1.60;;;;;;;22.20;47.15;99410.22;5046285;28;20025;-72
2023/05/18 06:58:36;;;;;;;6.57;1.60;;;;;;;22.96;46.18;99409.81;5031034;28;20029;-73
2023/05/18 07:01:01;;;;;;;5.90;1.80;;;;;;;23.23;44.40;99403.28;5030551;28;20080;-70
2023/05/18 07:03:29;;;;;;;5.28;1.55;;;;;;;24.22;43.42;99387.34;5031570;28;20025;-70
2023/05/18 07:05:54;;;;;;;9.17;1.97;;;;;;;25.22;41.51;99405.03;5031090;28;20025;-71
2023/05/18 07:08:21;;;;;;;7.05;2.20;;;;;;;25.31;40.76;99399.75;5033860;28;20529;-78
2023/05/18 07:10:46;;;;;;;4.75;1.60;;;;;;;25.51;39.74;99396.00;5028649;28;20025;-77
2023/05/18 07:13:11;;;;;;;11.98;1.90;;;;;;;25.65;39.22;99398.94;5030768;28;20039;-77
2023/05/18 07:15:37;;;;;;;5.28;1.63;;;;;;;25.51;38.22;99366.34;5038340;28;20351;-77
2023/05/18 07:18:02;;;;;;;9.02;1.88;;;;;;;24.89;39.14;99401.03;5037959;28;20376;-76
2023/05/18 07:20:28;;;;;;;5.65;1.73;;;;;;;24.92;38.84;99397.69;5026456;28;20033;-75
2023/05/18 07:22:56;;;;;;;5.68;1.40;;;;;;;25.04;38.78;99395.41;5018684;28;20036;-74
2023/05/18 07:25:22;;;;;;;9.07;1.98;;;;;;;25.79;38.93;99386.09;5024761;28;20518;-75
2023/05/18 07:27:50;;;;;;;8.80;1.60;;;;;;;27.68;36.31;99402.56;5031435;28;20025;-76
2023/05/18 07:30:16;;;;;;;8.13;1.80;;;;;;;27.49;35.74;99405.34;5030433;28;20033;-75
2023/05/18 07:32:44;;;;;;;5.88;1.63;;;;;;;27.57;36.29;99387.19;5034970;28;20105;-75
2023/05/18 07:35:09;;;;;;;7.03;1.65;;;;;;;27.80;37.14;99400.16;5031742;28;20766;-75
2023/05/18 07:37:35;;;;;;;6.57;1.90;;;;;;;27.05;35.91;99406.50;5035428;28;20025;-76
2023/05/18 07:40:01;;;;;;;4.78;1.58;;;;;;;26.78;36.68;99388.50;5041146;28;20028;-75
2023/05/18 07:42:26;;;;;;;10.25;2.17;;;;;;;27.77;35.70;99400.72;5026734;28;20025;-72
2023/05/18 07:44:52;;;;;;;5.70;1.98;;;;;;;27.16;35.83;99393.28;5027963;28;20021;-71
2023/05/18 07:47:20;;;;;;;8.35;1.65;;;;;;;28.46;34.54;99398.22;5029261;28;20361;-73
2023/05/18 07:49:45;;;;;;;7.03;1.80;;;;;;;28.56;33.46;99395.25;5029137;28;20021;-73
2023/05/18 07:52:10;;;;;;;10.07;2.15;;;;;;;28.03;33.86;99395.59;5034068;28;20087;-72
2023/05/18 07:54:35;;;;;;;7.30;2.22;;;;;;;26.85;36.23;99402.00;5032870;28;20108;-73
2023/05/18 07:57:01;;;;;;;6.13;1.50;;;;;;;27.90;34.46;99393.59;5026022;28;20037;-73
2023/05/18 07:59:26;;;;;;;6.47;1.60;;;;;;;28.08;34.26;99378.81;5032862;28;20450;-73
2023/05/18 08:01:51;;;;;;;6.07;1.60;;;;;;;28.18;34.21;99377.81;5034125;28;20037;-73
2023/05/18 08:04:17;;;;;;;9.23;1.77;;;;;;;28.66;34.27;99377.47;5047255;28;20025;-74
2023/05/18 08:06:42;;;;;;;9.07;2.33;;;;;;;29.85;32.72;99377.38;5048061;28;20040;-73
2023/05/18 08:09:07;;;;;;;9.23;1.80;;;;;;;31.21;31.29;99389.03;5030666;28;20026;-73
2023/05/18 08:11:32;;;;;;;5.47;1.73;;;;;;;30.98;32.63;99352.00;5031401;28;20025;-73
2023/05/18 08:13:58;;;;;;;11.48;2.08;;;;;;;30.04;33.55;99391.13;5030864;28;20406;-73
2023/05/18 08:16:23;;;;;;;7.32;2.22;;;;;;;28.96;32.64;99372.44;5031596;28;20045;-73
2023/05/18 08:18:49;;;;;;;5.07;1.60;;;;;;;29.13;33.54;99385.75;5030364;28;20028;-73
2023/05/18 08:21:14;;;;;;;9.07;2.22;;;;;;;29.23;33.56;99380.75;5029598;28;20033;-74
2023/05/18 08:23:40;;;;;;;8.88;1.80;;;;;;;29.47;33.13;99388.03;5020633;28;20042;-73
2023/05/18 08:26:07;;;;;;;5.18;1.88;;;;;;;28.33;33.10;99382.28;5026807;28;20079;-74
2023/05/18 08:28:33;;;;;;;10.00;2.03;;;;;;;29.36;33.02;99386.63;5024054;28;20112;-74
2023/05/18 08:30:58;;;;;;;6.07;1.90;;;;;;;30.35;31.59;99382.78;5025471;28;20593;-74
2023/05/18 08:33:23;;;;;;;10.95;2.00;;;;;;;29.77;32.49;99367.00;5030146;28;20471;-74
2023/05/18 08:35:49;;;;;;;7.07;1.52;;;;;;;29.09;32.92;99373.59;5033764;28;20051;-74
2023/05/18 08:38:15;;;;;;;5.90;1.80;;;;;;;30.16;31.95;99376.59;5030425;28;20120;-76
2023/05/18 08:41:22;;;;;;;6.53;2.00;;;;;;;29.73;32.48;99377.13;5035778;28;20041;-76
2023/05/18 08:43:52;;;;;;;8.73;1.90;;;;;;;31.08;30.77;99378.81;4982851;28;20036;-75
2023/05/18 08:46:25;;;;;;;11.70;1.90;;;;;;;28.86;33.14;99386.56;5030728;28;20487;-75
2023/05/18 08:48:52;;;;;;;4.78;1.40;;;;;;;30.40;32.33;99364.28;5033732;28;20088;-73
2023/05/18 08:51:19;;;;;;;9.70;2.25;;;;;;;29.99;31.34;99359.75;5038558;28;20502;-74
2023/05/18 08:53:51;;;;;;;7.28;2.10;;;;;;;28.14;32.59;99360.94;5037515;28;20029;-73
2023/05/18 08:56:21;;;;;;;6.18;2.03;;;;;;;27.25;33.56;99364.56;5030245;28;20421;-73
2023/05/18 08:58:51;;;;;;;8.13;2.03;;;;;;;27.91;33.77;99367.47;5032747;28;20033;-74
2023/05/18 09:01:16;;;;;;;6.68;1.65;;;;;;;28.71;33.99;99363.47;5026725;28;20033;-74
2023/05/18 09:03:44;;;;;;;8.43;2.13;;;;;;;29.80;32.15;99346.81;5025640;28;20446;-74
2023/05/18 09:06:09;;;;;;;6.53;1.75;;;;;;;30.09;31.75;99359.47;5026200;28;20034;-74
2023/05/18 09:08:35;;;;;;;9.20;1.73;;;;;;;31.55;30.44;99332.34;5032153;28;20033;-74
2023/05/18 09:11:02;;;;;;;6.18;1.83;;;;;;;29.83;32.76;99351.75;5032265;28;20017;-74
2023/05/18 09:13:28;;;;;;;6.68;1.80;;;;;;;28.29;33.26;99342.28;5029567;28;20415;-75
2023/05/18 09:15:54;;;;;;;8.73;2.08;;;;;;;29.05;33.99;99349.09;5036778;28;20021;-73
2023/05/18 09:18:19;;;;;;;4.20;1.33;;;;;;;27.17;34.65;99344.94;5033437;28;20112;-76
2023/05/18 09:20:45;;;;;;;5.60;1.70;;;;;;;24.44;36.89;99330.88;5031449;28;20111;-74
2023/05/18 09:23:11;;;;;;;9.07;1.92;;;;;;;25.86;36.78;99345.06;5033295;28;20100;-74
2023/05/18 09:25:43;;;;;;;7.03;2.22;;;;;;;22.86;38.22;99346.28;5032011;28;20021;-74
2023/05/18 09:28:10;;;;;;;8.57;1.83;;;;;;;22.35;41.23;99359.88;5027778;28;20040;-73
2023/05/18 09:30:42;;;;;;;7.75;1.85;;;;;;;21.16;41.56;99361.84;5028929;28;20037;-74
2023/05/18 09:33:20;;;;;;;7.90;2.08;;;;;;;23.47;39.21;99350.31;5023758;28;20021;-74
2023/05/18 09:35:46;;;;;;;10.20;1.80;;;;;;;25.12;37.12;99352.44;5034577;28;20033;-74
2023/05/18 09:38:16;;;;;;;10.55;2.15;;;;;;;27.01;35.05;99360.97;5024587;28;20384;-74
2023/05/18 09:40:45;;;;;;;7.00;1.98;;;;;;;27.44;34.85;99333.19;5051203;28;20518;-74
2023/05/18 09:43:11;;;;;;;7.88;2.00;;;;;;;26.02;35.54;99349.34;5020775;28;20032;-74
2023/05/18 09:45:42;;;;;;;7.20;1.75;;;;;;;29.05;34.25;99337.16;5037499;28;20033;-74
2023/05/18 09:48:08;;;;;;;8.05;2.10;;;;;;;29.94;32.48;99346.75;5024263;28;20044;-74
2023/05/18 09:50:36;;;;;;;9.40;1.95;;;;;;;29.77;32.66;99329.91;5032733;28;20025;-74
2023/05/18 09:53:05;;;;;;;5.88;1.75;;;;;;;28.81;32.52;99345.72;5025935;28;20048;-74
2023/05/18 09:55:30;;;;;;;;;;;;;;;27.97;33.10;99346.78;5035028;28;20025;-75
2023/05/18 09:57:56;;;;;;;7.37;1.83;;;;;;;28.53;33.00;99328.19;5039367;28;19916;-74
2023/05/18 10:00:21;;;;;;;6.75;1.88;;;;;;;27.98;33.88;99326.16;5031365;28;20339;-74
2023/05/18 10:02:50;;;;;;;7.95;1.65;;;;;;;29.04;32.28;99319.63;5025166;28;20026;-74
2023/05/18 10:05:26;;;;;;;5.28;1.48;;;;;;;26.94;33.93;99339.16;5033725;28;20025;-74
2023/05/18 10:07:52;;;;;;;5.85;1.80;;;;;;;27.19;34.48;99332.41;5040701;28;20025;-74
2023/05/18 10:10:23;;;;;;;10.10;2.20;;;;;;;29.00;33.40;99317.72;5022243;28;20041;-74
2023/05/18 10:12:52;;;;;;;9.13;1.80;;;;;;;31.24;31.79;99315.69;5032768;28;20032;-72
2023/05/18 10:15:20;;;;;;;7.68;1.80;;;;;;;32.13;30.39;99315.28;5025184;28;20061;-74
2023/05/18 10:17:47;;;;;;;5.43;1.70;;;;;;;30.54;30.80;99318.31;5028827;28;20561;-82
2023/05/18 10:20:25;;;;;;;8.25;1.65;;;;;;;29.30;31.17;99305.09;5032941;28;20059;-72
2023/05/18 10:22:53;;;;;;;5.03;1.63;;;;;;;28.45;32.57;99307.47;5037242;28;20387;-73
2023/05/18 10:25:20;;;;;;;8.77;1.50;;;;;;;30.13;30.80;99311.09;5036486;28;20104;-72
2023/05/18 10:27:53;;;;;;;7.70;1.80;;;;;;;27.48;32.41;99303.63;5030056;28;20472;-72
2023/05/18 10:30:18;;;;;;;4.05;1.50;;;;;;;27.27;33.52;99312.31;5023288;28;20044;-72
2023/05/18 10:32:45;;;;;;;8.35;1.67;;;;;;;28.77;32.26;99286.22;5035876;28;20101;-72
2023/05/18 10:35:10;;;;;;;8.90;1.92;;;;;;;30.70;30.96;99290.75;5032314;28;20386;-73
2023/05/18 10:37:38;;;;;;;9.70;1.92;;;;;;;30.90;29.75;99310.88;5032521;28;20036;-73
2023/05/18 10:40:06;;;;;;;4.30;1.63;;;;;;;32.22;28.66;99300.09;5031344;28;20378;-73
2023/05/18 10:42:32;;;;;;;6.97;2.20;;;;;;;32.46;29.17;99299.50;5029949;28;20025;-72
2023/05/18 10:44:59;;;;;;;7.82;2.13;;;;;;;31.96;29.07;99300.19;5027250;28;20388;-73
2023/05/18 10:47:26;;;;;;;6.70;1.75;;;;;;;32.48;29.60;99300.00;5022582;28;20021;-72
2023/05/18 10:49:53;;;;;;;7.85;1.85;;;;;;;30.91;29.51;99287.38;5028794;28;20025;-73
2023/05/18 10:52:19;;;;;;;6.10;1.50;;;;;;;30.13;30.66;99310.25;5024247;28;20103;-73
2023/05/18 10:54:45;;;;;;;9.95;1.77;;;;;;;30.60;29.69;99313.41;5030922;28;20025;-72
2023/05/18 10:57:14;;;;;;;7.75;1.95;;;;;;;30.21;30.20;99298.31;5031661;28;20029;-72
2023/05/18 10:59:44;;;;;;;5.68;1.77;;;;;;;31.47;29.58;99291.22;5031872;28;20028;-73
2023/05/18 11:02:17;;;;;;;8.02;1.50;;;;;;;29.80;30.79;99291.03;5029058;28;20426;-73
2023/05/18 11:04:45;;;;;;;7.90;1.67;;;;;;;30.42;30.13;99303.31;5022019;28;20025;-72
2023/05/18 11:07:12;;;;;;;5.57;1.45;;;;;;;31.31;30.30;99287.22;5039365;28;20040;-72
2023/05/18 11:09:41;;;;;;;6.07;1.60;;;;;;;32.34;28.44;99282.59;5031932;28;20018;-72
2023/05/18 11:12:11;;;;;;;5.05;1.77;;;;;;;30.80;29.90;99284.06;5029678;28;20075;-73
2023/05/18 11:14:48;;;;;;;6.82;1.77;;;;;;;29.72;29.53;99296.56;5034678;28;20022;-73
2023/05/18 11:17:20;;;;;;;5.82;1.40;;;;;;;31.26;29.33;99282.66;5036035;28;20041;-72
2023/05/18 11:20:07;;;;;;;8.50;1.73;;;;;;;30.97;29.69;99288.88;5040852;28;20033;-72
2023/05/18 11:22:46;;;;;;;5.53;1.63;;;;;;;28.68;30.45;99293.66;5032366;28;20036;-71
2023/05/18 11:25:26;;;;;;;7.50;1.70;;;;;;;28.57;32.11;99293.06;5051095;28;20079;-72
2023/05/18 11:28:00;;;;;;;8.27;1.50;;;;;;;27.60;31.94;99287.31;5022197;28;20492;-72
2023/05/18 11:30:31;;;;;;;5.38;2.17;;;;;;;26.82;33.78;99288.78;5034330;28;20471;-73